Yorkton Municipal Airport
CYQV : now visible

Airfield :











YOU CAN JOIN US ON...

 
LOGIN :

Register | Disclaimer

   EN    FR    IT 

 









Legend :    VFR   Marginal VFR   IFR   Intensive IFR   Very Intensive IFR
Visi :
Ceiling :
>= 8 km
>= 3000ft
5 to 8 km
1000 to 3000 ft
1500m to 5 km
500 to 1000 ft
800 to 1500m
200 to 500 ft
< 800m
< 200 ft
Symbols :   Thunderstorms  Fog  Heavy snow  Heavy precipitations  Wind > 20 kt







- Airport Elevation : 1635 ft
- IATA code : YQV


CYQV - Yorkton Municipal

CURRENT METAR :
  • 202000Z AUTO 27012G18KT 9SM FEW020 BKN027 OVC110 19/15 A2974 RMK SLP077 DENSITY ALT 2600FT

EXPIRED METARs :
  • 201925Z AUTO 24012KT 9SM BKN025 19/15 A2974 RMK SLP077 DENSITY ALT 2600FT
  • 201918Z AUTO 24011G16KT 9SM FEW017 BKN026 20/16 A2974 RMK SLP076 DENSITY ALT 2700FT
  • 201900Z AUTO 25012KT 9SM FEW017 SCT024 19/16 A2973 RMK PRESRR SLP074 DENSITY ALT 2700FT
  • 201849Z AUTO 24012KT 9SM FEW024 SCT041 SCT075 BKN100 20/16 A2972 RMK SLP071 DENSITY ALT 2700FT
  • 201843Z AUTO 24010KT 9SM -RA SCT024 BKN041 BKN075 BKN100 19/16 A2972 RMK SLP070 DENSITY ALT 2600FT
  • 201830Z AUTO 27008KT 240V320 9SM -RA SCT022 BKN050 BKN075 OVC100 18/16 A2971 RMK PRESFR SLP066 DENSITY ALT 2600FT
  • 201819Z AUTO 24009G15KT 9SM BKN022 BKN170 19/16 A2973 RMK PRESFR SLP073 DENSITY ALT 2600FT
  • 201813Z AUTO 23009G18KT 9SM SCT020 BKN025 BKN170 BKN190 19/16 A2974 RMK SLP078 DENSITY ALT 2600FT

TAF TAF CYQV
Valid from the 20 at 18:00 until the 21 at 06:00 UTC


201745Z 2018/2106 22010G20KT P6SM SCT025
TEMPO 2018/2102 BKN020
BECMG 2022/2024 31010KT
FM210200 30010KT P6SM FEW030 RMK FCST BASED ON AUTO OBS. NXT FCST BY 210000Z
No reported NOTAMs for that airfield.



MET'MAP, your aeronautical weather chart ! - Copyright ORBIFLY December 2007 - Disclaimer

ORBIFLY MET'MAP TEAM :

Programming & Development : Alexandra Zaïnal
Concept & Development : Baudouin d'Aumeries
Co-Development & Prog : Marc-Olivier Méhu
Technical & hardware support : Manuel Goepfert

Contact : metmap@orbifly.com




SOURCES & CREDITS :

   NOAA       Earth
Advisory